createdAt,value
2022-07-29T00:03:59.451Z,71
2022-07-29T00:08:58.396Z,72
2022-07-29T00:13:58.041Z,71
2022-07-29T00:19:02.379Z,72
2022-07-29T00:23:57.339Z,72
2022-07-29T00:33:56.792Z,73
2022-07-29T00:38:56.312Z,73
2022-07-29T00:43:53.191Z,73
2022-07-29T00:48:52.155Z,73
2022-07-29T00:53:52.065Z,74
2022-07-29T00:58:50.767Z,74
2022-07-29T01:00:12.917Z,74
2022-07-29T01:05:14.191Z,74
2022-07-29T01:10:12.866Z,75
2022-07-29T01:20:08.674Z,75
2022-07-29T01:25:08.131Z,76
2022-07-29T01:35:14.113Z,77
2022-07-29T01:40:13.143Z,77
2022-07-29T01:45:12.617Z,78
2022-07-29T01:50:11.971Z,79
2022-07-29T01:55:11.409Z,79
2022-07-29T01:59:31.853Z,79
2022-07-29T02:04:31.309Z,80
2022-07-29T02:09:29.776Z,80
2022-07-29T02:14:29.855Z,81
2022-07-29T02:19:28.916Z,81
2022-07-29T02:24:28.854Z,81
2022-07-29T02:29:28.437Z,82
2022-07-29T02:34:27.394Z,82
2022-07-29T02:39:26.019Z,82
2022-07-29T02:44:25.506Z,83
2022-07-29T02:49:25.196Z,83
2022-07-29T02:54:24.315Z,83
2022-07-29T02:59:13.598Z,83
2022-07-29T03:04:13.641Z,84
2022-07-29T03:09:14.475Z,84
2022-07-29T03:14:13.167Z,84
2022-07-29T03:19:10.935Z,84
2022-07-29T03:24:13.237Z,85
2022-07-29T03:29:14.216Z,85
2022-07-29T03:34:09.551Z,86
2022-07-29T03:39:08.635Z,86
2022-07-29T03:44:08.504Z,86
2022-07-29T03:48:59.125Z,86
2022-07-29T03:53:58.221Z,86
2022-07-29T03:58:45.557Z,86
2022-07-29T04:03:45.284Z,86
2022-07-29T04:08:44.056Z,86
2022-07-29T04:13:44.473Z,86
2022-07-29T04:18:42.982Z,86
2022-07-29T04:23:53.818Z,86
2022-07-29T04:28:41.244Z,86
2022-07-29T04:33:40.402Z,86
2022-07-29T04:38:39.429Z,86
2022-07-29T04:43:38.697Z,87
2022-07-29T04:48:38.107Z,87
2022-07-29T04:53:37.889Z,87
2022-07-29T04:58:37.643Z,87
2022-07-29T05:03:36.669Z,86
2022-07-29T05:08:35.742Z,86
2022-07-29T05:13:47.151Z,86
2022-07-29T05:18:33.348Z,85
2022-07-29T05:23:32.867Z,84
2022-07-29T05:28:32.384Z,83
2022-07-29T05:33:36.965Z,82
2022-07-29T05:38:31.330Z,81
2022-07-29T05:43:31.440Z,80
2022-07-29T05:48:30.595Z,78
2022-07-29T05:53:29.886Z,76
2022-07-29T05:58:27.564Z,75
2022-07-29T06:03:26.671Z,74
2022-07-29T06:08:26.146Z,73
2022-07-29T06:13:25.346Z,72
2022-07-29T06:18:24.784Z,71
2022-07-29T06:23:24.705Z,70
2022-07-29T06:28:24.533Z,70
2022-07-29T06:33:23.638Z,71
2022-07-29T06:38:40.413Z,71
2022-07-29T06:43:20.831Z,71
2022-07-29T06:48:19.831Z,70
2022-07-29T06:53:19.115Z,69
2022-07-29T06:58:18.382Z,69
2022-07-29T07:03:18.176Z,68
2022-07-29T07:08:18.072Z,68
2022-07-29T07:13:17.262Z,67
2022-07-29T07:18:16.392Z,67
2022-07-29T07:23:15.123Z,65
2022-07-29T07:28:14.676Z,64
2022-07-29T07:33:14.170Z,64
2022-07-29T07:38:13.606Z,63
2022-07-29T07:43:13.746Z,60
2022-07-29T07:48:13.876Z,59
2022-07-29T07:53:13.896Z,59
2022-07-29T07:58:12.791Z,58
2022-07-29T07:59:36.323Z,58
2022-07-29T08:04:33.696Z,58
2022-07-29T08:09:32.595Z,57
2022-07-29T08:14:31.798Z,56
2022-07-29T08:19:31.158Z,56
2022-07-29T08:24:51.878Z,55
2022-07-29T08:29:29.789Z,56
2022-07-29T08:34:30.209Z,55
2022-07-29T08:39:28.377Z,55
2022-07-29T08:44:31.937Z,52
2022-07-29T08:49:27.514Z,50
2022-07-29T08:54:27.273Z,50
2022-07-29T08:59:20.709Z,48
2022-07-29T09:04:16.800Z,48
2022-07-29T09:09:16.225Z,48
2022-07-29T09:14:13.579Z,48
2022-07-29T09:19:12.703Z,46
2022-07-29T09:24:12.045Z,46
2022-07-29T09:29:11.616Z,45
2022-07-29T09:34:11.096Z,47
2022-07-29T09:39:10.944Z,48
2022-07-29T09:44:10.046Z,47
2022-07-29T09:49:09.945Z,47
2022-07-29T09:54:08.341Z,47
2022-07-29T09:58:54.932Z,46
2022-07-29T10:03:54.326Z,45
2022-07-29T10:08:53.323Z,46
2022-07-29T10:13:52.923Z,45
2022-07-29T10:18:53.229Z,45
2022-07-29T10:23:52.660Z,46
2022-07-29T10:28:51.971Z,45
2022-07-29T10:33:51.319Z,43
2022-07-29T10:38:50.428Z,41
2022-07-29T10:43:52.693Z,40
2022-07-29T10:48:49.092Z,41
2022-07-29T10:53:48.503Z,40
2022-07-29T10:58:53.210Z,39
2022-07-29T11:03:52.496Z,39
2022-07-29T12:08:38.049Z,39
2022-07-29T12:13:38.514Z,39
2022-07-29T12:18:36.048Z,40
2022-07-29T12:23:36.378Z,40
2022-07-29T12:28:35.465Z,40
2022-07-29T12:33:34.322Z,40
2022-07-29T12:38:33.188Z,38
2022-07-29T12:43:32.549Z,37
2022-07-29T12:48:32.309Z,37
2022-07-29T12:53:29.383Z,38
2022-07-29T12:58:28.571Z,37
2022-07-29T12:59:50.041Z,37
2022-07-29T13:04:49.448Z,37
2022-07-29T13:09:48.796Z,37
2022-07-29T13:14:49.042Z,38
2022-07-29T13:19:48.487Z,38
2022-07-29T13:24:47.616Z,38
2022-07-29T13:29:47.309Z,38
2022-07-29T13:34:44.187Z,38
2022-07-29T13:39:53.609Z,37
2022-07-29T13:44:42.481Z,36
2022-07-29T13:49:42.216Z,37
2022-07-29T13:54:43.485Z,37
2022-07-29T13:59:15.170Z,37
2022-07-29T14:04:14.626Z,36
2022-07-29T14:09:13.609Z,37
2022-07-29T14:14:11.424Z,36
2022-07-29T14:19:10.553Z,36
2022-07-29T14:24:21.603Z,36
2022-07-29T14:29:09.039Z,36
2022-07-29T14:34:08.814Z,35
2022-07-29T14:39:08.111Z,35
2022-07-29T14:44:08.250Z,35
2022-07-29T14:49:14.754Z,34
2022-07-29T14:54:14.448Z,34
2022-07-29T14:58:53.587Z,35
2022-07-29T15:03:59.639Z,34
2022-07-29T15:08:52.106Z,33
2022-07-29T15:13:52.219Z,33
2022-07-29T15:18:51.903Z,33
2022-07-29T15:23:51.711Z,32
2022-07-29T15:28:50.332Z,32
2022-07-29T15:33:58.154Z,32
2022-07-29T15:38:47.461Z,32
2022-07-29T15:43:46.668Z,32
2022-07-29T15:48:46.322Z,32
2022-07-29T15:53:54.353Z,31
2022-07-29T15:58:45.083Z,32
2022-07-29T16:03:46.895Z,32
2022-07-29T16:08:44.757Z,31
2022-07-29T16:13:44.267Z,31
2022-07-29T16:18:43.479Z,31
2022-07-29T16:23:40.346Z,32
2022-07-29T16:28:39.576Z,31
2022-07-29T16:33:56.406Z,32
2022-07-29T16:38:47.960Z,33
2022-07-29T16:43:37.907Z,33
2022-07-29T16:48:39.296Z,34
2022-07-29T16:53:36.818Z,34
2022-07-29T16:58:37.460Z,34
2022-07-29T17:03:35.936Z,34
2022-07-29T17:08:32.726Z,34
2022-07-29T17:13:32.854Z,33
2022-07-29T17:18:32.064Z,34
2022-07-29T17:23:32.021Z,34
2022-07-29T17:28:31.730Z,31
2022-07-29T17:33:31.933Z,33
2022-07-29T17:38:30.458Z,31
2022-07-29T17:43:29.495Z,31
2022-07-29T17:48:27.113Z,30
2022-07-29T17:53:26.090Z,30
2022-07-29T17:58:24.631Z,30
2022-07-29T17:59:46.323Z,30
2022-07-29T18:04:51.296Z,32
2022-07-29T18:09:45.358Z,34
2022-07-29T18:14:44.795Z,36
2022-07-29T18:19:43.642Z,37
2022-07-29T18:24:42.767Z,38
2022-07-29T18:29:40.215Z,38
2022-07-29T18:34:39.377Z,39
2022-07-29T18:39:38.484Z,39
2022-07-29T18:44:48.945Z,40
2022-07-29T18:49:37.046Z,40
2022-07-29T18:54:37.079Z,40
2022-07-29T18:59:13.848Z,41
2022-07-29T19:04:12.997Z,41
2022-07-29T19:09:11.748Z,42
2022-07-29T19:14:10.137Z,43
2022-07-29T19:19:09.116Z,44
2022-07-29T19:24:15.529Z,44
2022-07-29T19:29:07.785Z,45
2022-07-29T19:34:14.948Z,45
2022-07-29T19:39:13.910Z,46
2022-07-29T19:44:13.636Z,46
2022-07-29T19:49:13.032Z,46
2022-07-29T19:54:12.345Z,47
2022-07-29T19:58:52.688Z,47
2022-07-29T20:03:50.867Z,47
2022-07-29T20:08:51.909Z,47
2022-07-29T20:13:50.184Z,47
2022-07-29T20:18:48.980Z,48
2022-07-29T20:23:48.635Z,48
2022-07-29T20:28:50.149Z,48
2022-07-29T20:33:45.073Z,48
2022-07-29T20:38:44.406Z,48
2022-07-29T20:43:43.496Z,48
2022-07-29T20:48:43.325Z,48
2022-07-29T20:53:42.448Z,49
2022-07-29T20:58:42.541Z,50
2022-07-29T21:00:12.229Z,50
2022-07-29T21:05:12.606Z,50
2022-07-29T21:10:09.458Z,50
2022-07-29T21:15:09.188Z,50
2022-07-29T21:20:09.170Z,51
2022-07-29T21:25:08.178Z,53
2022-07-29T21:30:00.865Z,54
2022-07-29T21:34:58.918Z,56
2022-07-29T21:39:57.952Z,57
2022-07-29T21:44:55.834Z,58
2022-07-29T21:49:54.957Z,59
2022-07-29T21:54:53.928Z,60
2022-07-29T21:59:14.433Z,60
2022-07-29T22:04:13.828Z,59
2022-07-29T22:09:13.181Z,58
2022-07-29T22:14:12.188Z,59
2022-07-29T22:19:11.263Z,59
2022-07-29T22:24:10.214Z,59
2022-07-29T22:29:08.870Z,59
2022-07-29T22:34:08.437Z,59
2022-07-29T22:39:16.830Z,60
2022-07-29T22:44:14.609Z,60
2022-07-29T22:49:14.169Z,60
2022-07-29T22:54:13.268Z,61
2022-07-29T22:58:57.579Z,61
2022-07-29T23:03:55.428Z,61
2022-07-29T23:08:54.326Z,62
2022-07-29T23:13:53.771Z,62
2022-07-29T23:18:52.981Z,62
2022-07-29T23:23:52.536Z,63
2022-07-29T23:28:52.229Z,63
2022-07-29T23:33:51.304Z,64
2022-07-29T23:38:51.450Z,65
2022-07-29T23:43:47.798Z,65
2022-07-29T23:48:46.831Z,66
2022-07-29T23:53:54.431Z,66
2022-07-29T23:58:45.418Z,67
